Time;durP1;ratioP1;P1;durP2;ratioP2;P2;SDS_P1;SDS_P2;PMS_P1;PMS_P2;Temp;Humidity;BMP_temperature;BMP_pressure;BME280_temperature;BME280_humidity;BME280_pressure;Samples;Min_cycle;Max_cycle;Signal;HPM_P1;HPM_P2
2023/04/24 07:20:30;;;;;;;13.13;5.73;;;9.20;99.90;;;;;;4933958;29;20220;-72
2023/04/24 07:22:57;;;;;;;11.30;5.20;;;9.20;99.90;;;;;;4935622;29;20315;-73
2023/04/24 07:25:25;;;;;;;11.70;5.23;;;9.30;99.90;;;;;;4937826;29;20296;-70
2023/04/24 07:27:51;;;;;;;12.17;6.00;;;9.40;99.90;;;;;;4927574;29;20241;-70
2023/04/24 07:30:18;;;;;;;10.23;5.50;;;9.50;99.90;;;;;;4918467;29;20300;-69
2023/04/24 07:32:45;;;;;;;9.30;5.07;;;9.60;99.90;;;;;;4918115;29;20300;-70
2023/04/24 07:35:12;;;;;;;13.13;4.97;;;9.70;99.90;;;;;;4918442;29;20296;-70
2023/04/24 07:37:45;;;;;;;10.27;4.90;;;9.80;99.90;;;;;;4913031;29;20309;-73
2023/04/24 07:40:12;;;;;;;12.13;4.73;;;9.80;99.90;;;;;;4916282;29;20678;-75
2023/04/24 07:42:39;;;;;;;8.47;4.67;;;9.80;99.90;;;;;;4917827;29;20324;-72
2023/04/24 07:45:07;;;;;;;10.10;4.33;;;9.80;99.90;;;;;;4918219;29;20301;-72
2023/04/24 07:47:34;;;;;;;7.80;4.07;;;9.80;99.90;;;;;;4918293;29;20305;-73
2023/04/24 07:50:01;;;;;;;8.67;4.13;;;9.90;99.90;;;;;;4918845;29;20296;-73
2023/04/24 07:52:28;;;;;;;11.03;3.57;;;10.00;99.90;;;;;;4918646;29;20269;-72
2023/04/24 07:55:00;;;;;;;6.33;3.37;;;10.60;99.90;;;;;;4918527;29;20308;-73
2023/04/24 07:57:27;;;;;;;8.63;3.30;;;11.20;99.90;;;;;;4918545;29;20641;-72
2023/04/24 07:59:53;;;;;;;9.17;3.30;;;11.40;99.90;;;;;;4918218;29;20313;-73
2023/04/24 08:02:25;;;;;;;10.50;3.23;;;11.40;99.90;;;;;;4918376;29;20340;-72
2023/04/24 08:04:53;;;;;;;5.40;3.13;;;11.30;99.90;;;;;;4918100;29;20258;-73
2023/04/24 08:07:19;;;;;;;6.77;3.30;;;10.90;99.90;;;;;;4918114;29;20655;-72
2023/04/24 08:09:46;;;;;;;7.33;3.13;;;10.90;99.90;;;;;;4917986;29;20309;-71
2023/04/24 08:12:15;;;;;;;8.20;3.63;;;10.70;99.90;;;;;;4918019;29;20292;-71
2023/04/24 08:14:41;;;;;;;7.87;3.20;;;10.90;99.90;;;;;;4918086;29;20653;-72
2023/04/24 08:17:08;;;;;;;7.00;3.43;;;11.30;99.90;;;;;;4917888;29;20301;-71
2023/04/24 08:19:35;;;;;;;6.77;3.17;;;11.50;99.90;;;;;;4917759;29;20308;-71
2023/04/24 08:22:03;;;;;;;8.00;3.20;;;11.50;99.90;;;;;;4917808;29;20236;-72
2023/04/24 08:24:30;;;;;;;10.07;4.03;;;11.40;99.90;;;;;;4917911;29;20873;-71
2023/04/24 08:26:58;;;;;;;8.93;3.47;;;11.30;99.90;;;;;;4917789;29;20264;-72
2023/04/24 08:29:26;;;;;;;5.27;3.07;;;11.40;99.90;;;;;;4917816;29;20213;-73
2023/04/24 08:31:54;;;;;;;7.03;2.90;;;11.50;99.90;;;;;;4917989;29;20220;-73
2023/04/24 08:34:21;;;;;;;4.17;2.47;;;11.60;99.90;;;;;;4917771;29;20217;-73
2023/04/24 08:36:49;;;;;;;4.30;2.30;;;11.80;99.90;;;;;;4917683;29;20293;-72
2023/04/24 08:39:16;;;;;;;7.33;2.10;;;12.10;99.90;;;;;;4917680;29;20288;-74
2023/04/24 08:41:45;;;;;;;4.23;2.00;;;12.10;99.90;;;;;;4917397;29;20297;-73
2023/04/24 08:44:14;;;;;;;7.27;2.43;;;12.40;99.90;;;;;;4917640;29;20324;-73
2023/04/24 08:46:43;;;;;;;6.37;2.23;;;12.90;99.90;;;;;;4917574;29;20237;-74
2023/04/24 08:49:10;;;;;;;4.73;2.10;;;13.50;99.90;;;;;;4917620;29;20244;-74
2023/04/24 08:51:38;;;;;;;4.67;2.13;;;13.40;99.90;;;;;;4917079;29;20214;-73
2023/04/24 08:54:07;;;;;;;3.33;2.00;;;13.10;99.90;;;;;;4916803;29;20296;-74
2023/04/24 08:56:37;;;;;;;4.80;1.90;;;12.80;99.90;;;;;;4917714;29;20590;-74
2023/04/24 08:59:05;;;;;;;5.23;1.90;;;12.90;99.90;;;;;;4917515;29;20217;-73
2023/04/24 09:01:34;;;;;;;5.93;2.50;;;13.20;99.90;;;;;;4917442;29;20257;-72
2023/04/24 09:04:04;;;;;;;3.87;1.93;;;13.40;99.90;;;;;;4917194;29;20237;-74
2023/04/24 09:06:32;;;;;;;2.43;1.73;;;13.50;99.90;;;;;;4917058;29;20230;-74
2023/04/24 09:09:01;;;;;;;5.83;1.67;;;13.60;99.90;;;;;;4917112;29;20220;-74
2023/04/24 09:11:28;;;;;;;5.47;1.60;;;14.00;99.90;;;;;;4917230;29;20268;-74
2023/04/24 09:13:56;;;;;;;4.70;1.77;;;14.40;99.90;;;;;;4917109;29;20319;-72
2023/04/24 09:16:24;;;;;;;3.30;1.60;;;14.50;99.90;;;;;;4916978;29;20333;-73
2023/04/24 09:18:51;;;;;;;4.27;1.60;;;14.90;99.90;;;;;;4916978;29;20247;-72
2023/04/24 09:21:22;;;;;;;5.43;1.30;;;14.80;99.90;;;;;;4916955;29;20240;-72
2023/04/24 09:23:58;;;;;;;5.23;1.50;;;14.10;99.90;;;;;;4917220;29;20323;-72
2023/04/24 09:26:26;;;;;;;6.27;2.00;;;14.30;99.90;;;;;;4916822;29;20816;-73
2023/04/24 09:28:54;;;;;;;4.20;1.33;;;14.30;99.90;;;;;;4916811;29;20304;-73
2023/04/24 09:31:22;;;;;;;3.90;1.80;;;14.10;99.90;;;;;;4916693;29;20297;-72
2023/04/24 09:33:55;;;;;;;7.20;1.53;;;14.00;99.90;;;;;;4916342;29;20256;-73
2023/04/24 09:36:31;;;;;;;2.50;1.33;;;14.20;99.90;;;;;;4916269;29;20332;-73
2023/04/24 09:38:59;;;;;;;2.37;1.30;;;14.30;99.90;;;;;;4916693;29;20213;-73
2023/04/24 09:41:27;;;;;;;3.17;1.40;;;13.90;99.90;;;;;;4916856;29;20304;-73
2023/04/24 09:43:55;;;;;;;1.87;1.23;;;13.60;99.90;;;;;;4916569;29;20237;-75
2023/04/24 09:46:30;;;;;;;7.03;1.53;;;13.40;99.90;;;;;;4916464;29;20225;-72
2023/04/24 09:48:56;;;;;;;3.87;1.70;;;13.20;99.90;;;;;;4916392;29;20762;-73
2023/04/24 09:51:37;;;;;;;3.13;1.30;;;13.30;99.90;;;;;;4916727;29;20304;-73
2023/04/24 09:54:04;;;;;;;2.17;1.20;;;13.40;99.90;;;;;;4916534;29;20293;-75
2023/04/24 09:56:34;;;;;;;2.10;1.30;;;13.40;99.90;;;;;;4916316;29;20229;-74
2023/04/24 09:59:07;;;;;;;3.60;1.50;;;13.40;99.90;;;;;;4916356;29;20223;-72
2023/04/24 10:01:35;;;;;;;6.13;1.60;;;13.90;99.90;;;;;;4916434;29;20292;-72
2023/04/24 10:04:02;;;;;;;4.33;1.53;;;14.30;99.90;;;;;;4917800;29;20237;-72
2023/04/24 10:06:37;;;;;;;4.80;1.67;;;14.30;99.90;;;;;;4920022;29;20657;-72
2023/04/24 10:09:04;;;;;;;4.83;1.70;;;14.00;99.90;;;;;;4920231;29;20301;-74
2023/04/24 10:11:32;;;;;;;2.63;1.20;;;14.00;99.90;;;;;;4920280;29;20210;-72
2023/04/24 10:13:59;;;;;;;2.73;1.10;;;14.30;99.90;;;;;;4920179;29;20309;-74
2023/04/24 10:16:28;;;;;;;2.33;1.23;;;14.40;99.90;;;;;;4920299;29;20320;-72
2023/04/24 10:18:56;;;;;;;1.87;1.07;;;14.30;99.90;;;;;;4920113;29;20674;-72
2023/04/24 10:21:23;;;;;;;3.47;1.37;;;14.50;99.90;;;;;;4920094;29;20248;-72
2023/04/24 10:23:52;;;;;;;2.67;1.50;;;14.60;99.90;;;;;;4920206;29;20646;-73
2023/04/24 10:26:20;;;;;;;3.70;1.60;;;14.80;99.90;;;;;;4919842;29;20637;-72
2023/04/24 10:28:47;;;;;;;2.17;1.30;;;14.90;99.90;;;;;;4920065;29;20244;-75
2023/04/24 10:31:15;;;;;;;2.97;1.40;;;14.90;99.90;;;;;;4920038;29;20245;-75
2023/04/24 10:33:43;;;;;;;2.47;1.47;;;14.50;99.90;;;;;;4919662;29;20237;-75
2023/04/24 10:36:12;;;;;;;3.07;1.40;;;14.10;99.90;;;;;;4919170;29;20260;-75
2023/04/24 10:38:41;;;;;;;2.17;1.20;;;13.90;99.90;;;;;;4920241;29;20300;-75
2023/04/24 10:41:16;;;;;;;7.03;1.43;;;13.80;99.90;;;;;;4919748;29;20684;-75
2023/04/24 10:43:43;;;;;;;2.23;0.97;;;13.70;99.90;;;;;;4919660;29;20236;-75
2023/04/24 10:46:11;;;;;;;5.23;1.77;;;13.90;99.90;;;;;;4919297;29;20236;-75
2023/04/24 10:48:43;;;;;;;5.80;1.70;;;13.90;99.90;;;;;;4919516;29;20218;-75
2023/04/24 10:51:13;;;;;;;4.27;1.20;;;13.90;99.90;;;;;;4919482;29;20213;-74
2023/04/24 10:53:40;;;;;;;1.53;1.40;;;14.00;99.90;;;;;;4919822;29;20269;-74
2023/04/24 10:56:10;;;;;;;4.07;1.67;;;14.10;99.90;;;;;;4919776;29;20272;-75
2023/04/24 10:58:40;;;;;;;3.93;1.47;;;14.40;99.90;;;;;;4919671;29;20570;-75
2023/04/24 11:01:07;;;;;;;3.63;2.23;;;14.60;99.90;;;;;;4919377;29;20210;-75
2023/04/24 11:03:36;;;;;;;3.13;1.30;;;14.70;99.90;;;;;;4919667;29;20243;-75
2023/04/24 11:06:04;;;;;;;2.23;1.43;;;14.70;99.90;;;;;;4919462;29;20257;-73
2023/04/24 11:08:38;;;;;;;3.17;1.53;;;14.30;99.90;;;;;;4919248;29;20245;-73
2023/04/24 11:11:12;;;;;;;5.43;1.50;;;14.10;99.90;;;;;;4898277;29;20210;-71
2023/04/24 11:14:06;;;;;;;4.87;1.50;;;13.80;99.90;;;;;;4917508;29;20299;-70
2023/04/24 11:16:35;;;;;;;3.67;1.40;;;13.80;99.90;;;;;;4917137;29;20235;-71
2023/04/24 11:19:03;;;;;;;5.43;1.70;;;14.00;99.90;;;;;;4917565;29;20249;-73
2023/04/24 11:21:41;;;;;;;3.07;1.80;;;14.10;99.90;;;;;;4916808;29;20297;-74
2023/04/24 11:24:26;;;;;;;5.83;1.70;;;14.10;99.90;;;;;;4917427;29;20332;-77
2023/04/24 11:26:56;;;;;;;4.87;1.90;;;14.20;99.90;;;;;;4917080;29;20722;-73
2023/04/24 11:29:24;;;;;;;4.00;1.73;;;14.40;99.90;;;;;;4917213;29;20205;-73
2023/04/24 11:31:51;;;;;;;4.00;1.70;;;14.10;99.90;;;;;;4923258;29;20205;-73
2023/04/24 11:34:19;;;;;;;3.27;1.70;;;14.20;99.90;;;;;;4917021;29;20210;-74
2023/04/24 11:36:47;;;;;;;3.50;1.40;;;14.30;99.90;;;;;;4917243;29;20234;-74
2023/04/24 11:39:15;;;;;;;3.93;1.50;;;14.40;99.90;;;;;;4917550;29;20205;-74
2023/04/24 11:41:42;;;;;;;2.53;1.53;;;14.80;99.90;;;;;;4917114;29;20702;-76
2023/04/24 11:44:11;;;;;;;3.83;1.47;;;15.10;99.90;;;;;;4917052;29;20241;-74
2023/04/24 11:46:39;;;;;;;2.43;1.57;;;15.20;99.90;;;;;;4917395;29;20236;-73
2023/04/24 11:49:06;;;;;;;3.50;1.60;;;15.30;99.90;;;;;;4917125;29;20264;-72
2023/04/24 11:51:35;;;;;;;3.30;1.50;;;15.20;99.90;;;;;;4917028;29;20237;-74
2023/04/24 11:54:02;;;;;;;3.33;1.80;;;15.00;99.90;;;;;;4916608;29;20245;-72
2023/04/24 11:56:29;;;;;;;3.37;1.73;;;14.50;99.90;;;;;;4916547;29;20639;-69
2023/04/24 11:58:56;;;;;;;2.83;1.60;;;14.40;99.90;;;;;;4916351;29;20210;-73
2023/04/24 12:01:24;;;;;;;2.97;1.83;;;14.50;99.90;;;;;;4916207;29;20241;-72
2023/04/24 12:04:00;;;;;;;5.43;1.70;;;14.50;99.90;;;;;;4917039;29;20328;-73
2023/04/24 12:06:27;;;;;;;2.97;1.50;;;14.70;99.90;;;;;;4917050;29;20272;-73
2023/04/24 12:08:55;;;;;;;2.57;1.70;;;15.10;99.90;;;;;;4916330;29;20244;-72
2023/04/24 12:11:22;;;;;;;2.53;1.87;;;15.20;99.90;;;;;;4916634;29;20245;-73
2023/04/24 12:13:49;;;;;;;2.10;1.83;;;15.40;99.90;;;;;;4916422;29;20719;-73
2023/04/24 12:16:16;;;;;;;5.17;2.00;;;15.60;99.90;;;;;;4916527;29;20229;-71
2023/04/24 12:18:47;;;;;;;2.87;1.63;;;15.40;99.90;;;;;;4916604;29;20282;-72
2023/04/24 12:21:18;;;;;;;3.60;2.00;;;15.10;99.90;;;;;;4916267;29;20239;-72
2023/04/24 12:23:46;;;;;;;3.90;1.70;;;15.10;99.90;;;;;;4916673;29;20281;-73
2023/04/24 12:26:13;;;;;;;5.17;2.13;;;15.00;99.90;;;;;;4916231;29;20240;-72
2023/04/24 12:28:40;;;;;;;3.47;1.50;;;14.90;99.90;;;;;;4916112;29;20300;-71
2023/04/24 12:31:08;;;;;;;4.07;2.20;;;15.10;99.90;;;;;;4916590;29;20248;-74
2023/04/24 12:33:36;;;;;;;2.23;1.63;;;14.90;99.90;;;;;;4916561;29;20590;-74
2023/04/24 12:36:05;;;;;;;2.87;1.50;;;14.80;99.90;;;;;;4915969;29;20257;-74
2023/04/24 12:38:39;;;;;;;5.63;2.00;;;14.60;99.90;;;;;;4916170;29;20301;-75
2023/04/24 12:41:08;;;;;;;4.13;1.73;;;14.30;99.90;;;;;;4916103;29;20210;-73
2023/04/24 12:43:36;;;;;;;2.97;1.90;;;14.20;99.90;;;;;;4916191;29;20237;-73
2023/04/24 12:46:03;;;;;;;1.97;1.33;;;14.30;99.90;;;;;;4916140;29;20284;-76
2023/04/24 12:48:30;;;;;;;1.40;1.27;;;14.40;99.90;;;;;;4916036;29;20674;-73
2023/04/24 12:51:01;;;;;;;2.60;1.60;;;14.20;99.90;;;;;;4915621;29;20742;-73
2023/04/24 12:53:30;;;;;;;2.83;1.47;;;14.30;99.90;;;;;;4915845;29;20213;-72
2023/04/24 12:55:58;;;;;;;2.77;1.50;;;14.30;99.90;;;;;;4915616;29;20237;-72
2023/04/24 12:58:25;;;;;;;2.60;1.50;;;14.50;99.90;;;;;;4916220;29;20209;-72
2023/04/24 13:00:52;;;;;;;2.13;1.77;;;14.60;99.90;;;;;;4915710;29;20245;-74
2023/04/24 13:03:19;;;;;;;2.20;1.37;;;14.50;99.90;;;;;;4915869;29;20301;-72
2023/04/24 13:05:46;;;;;;;1.77;1.20;;;14.50;99.90;;;;;;4915581;29;20757;-74
2023/04/24 13:08:13;;;;;;;1.53;1.30;;;14.70;99.90;;;;;;4915401;29;20292;-72
2023/04/24 13:10:42;;;;;;;2.17;1.40;;;14.90;99.90;;;;;;4915877;29;20210;-72
2023/04/24 13:13:09;;;;;;;1.37;1.20;;;15.10;99.90;;;;;;4915670;29;20582;-78
2023/04/24 13:15:37;;;;;;;2.63;1.57;;;15.20;99.90;;;;;;4916068;29;20237;-73
2023/04/24 13:18:04;;;;;;;4.90;1.40;;;15.40;99.90;;;;;;4914388;29;20746;-73
2023/04/24 13:20:31;;;;;;;1.47;1.17;;;15.70;99.90;;;;;;4915270;29;20662;-73
2023/04/24 13:22:58;;;;;;;2.87;1.40;;;15.90;99.90;;;;;;4915360;29;20240;-72
2023/04/24 13:25:24;;;;;;;2.33;1.23;;;15.70;99.90;;;;;;4915265;29;20268;-73
2023/04/24 13:27:53;;;;;;;2.37;1.33;;;15.50;99.90;;;;;;4915297;29;20678;-73
2023/04/24 13:30:20;;;;;;;2.53;1.57;;;15.30;99.90;;;;;;4915003;29;20750;-71
2023/04/24 13:32:47;;;;;;;3.23;1.40;;;14.90;99.90;;;;;;4915573;29;20214;-72
2023/04/24 13:35:14;;;;;;;5.57;1.30;;;14.60;99.90;;;;;;4915064;29;20264;-75
2023/04/24 13:37:41;;;;;;;2.53;1.13;;;14.70;99.90;;;;;;4915514;29;20738;-73
2023/04/24 13:40:09;;;;;;;6.43;1.97;;;15.00;99.90;;;;;;4916112;29;20249;-72
2023/04/24 13:42:36;;;;;;;7.77;2.93;;;15.00;99.90;;;;;;4916096;29;20300;-71
2023/04/24 13:45:05;;;;;;;4.70;1.63;;;15.20;99.90;;;;;;4916093;29;20343;-73
2023/04/24 13:47:32;;;;;;;1.67;1.07;;;15.30;99.90;;;;;;4916115;29;20216;-73
2023/04/24 13:49:59;;;;;;;5.70;1.10;;;15.40;99.90;;;;;;4913935;29;20682;-73
2023/04/24 13:52:25;;;;;;;2.00;1.23;;;15.30;99.90;;;;;;4916252;29;20632;-73
2023/04/24 13:54:52;;;;;;;2.53;1.13;;;15.50;99.90;;;;;;4916205;29;20584;-72
2023/04/24 13:57:19;;;;;;;3.53;2.03;;;15.50;99.90;;;;;;4916187;29;20300;-73
2023/04/24 13:59:46;;;;;;;2.83;1.20;;;15.50;99.90;;;;;;4916020;29;20296;-73
2023/04/24 14:02:14;;;;;;;10.53;2.73;;;15.60;99.90;;;;;;4915910;29;20300;-74
2023/04/24 14:04:41;;;;;;;5.60;1.47;;;15.80;99.90;;;;;;4915690;29;20273;-73
2023/04/24 14:07:08;;;;;;;3.90;1.80;;;15.90;99.90;;;;;;4915739;29;20229;-75
2023/04/24 14:09:35;;;;;;;1.50;0.93;;;16.00;99.90;;;;;;4915857;29;20674;-75
2023/04/24 14:12:03;;;;;;;2.70;1.60;;;15.80;99.90;;;;;;4916037;29;20332;-73
2023/04/24 14:14:30;;;;;;;3.07;1.53;;;15.80;99.90;;;;;;4915577;29;20572;-75
2023/04/24 14:16:58;;;;;;;4.23;1.83;;;15.80;99.90;;;;;;4916042;29;20627;-73
2023/04/24 14:19:26;;;;;;;7.17;3.10;;;15.80;99.90;;;;;;4915500;29;20638;-74
2023/04/24 14:21:53;;;;;;;8.10;2.97;;;15.80;99.90;;;;;;4916053;29;20214;-74
2023/04/24 14:24:20;;;;;;;2.07;0.90;;;15.60;99.90;;;;;;4916380;29;20254;-78
2023/04/24 14:26:47;;;;;;;16.47;5.50;;;15.30;99.90;;;;;;4916254;29;20268;-75
2023/04/24 14:29:14;;;;;;;2.27;1.20;;;15.20;99.90;;;;;;4916056;29;20277;-76
2023/04/24 14:31:42;;;;;;;3.43;0.97;;;15.10;99.90;;;;;;4916122;29;20216;-75
2023/04/24 14:34:08;;;;;;;4.53;1.13;;;15.00;99.90;;;;;;4916165;29;20310;-75
2023/04/24 14:36:37;;;;;;;2.00;0.87;;;14.80;99.90;;;;;;4915927;29;20284;-75
2023/04/24 14:39:06;;;;;;;1.90;0.80;;;14.70;99.90;;;;;;4915352;29;20244;-75
2023/04/24 14:41:35;;;;;;;3.70;1.13;;;14.50;99.90;;;;;;4915979;29;20236;-75
2023/04/24 14:44:02;;;;;;;0.77;0.77;;;14.60;99.90;;;;;;4915593;29;20232;-71
2023/04/24 14:46:29;;;;;;;2.50;1.00;;;14.50;99.90;;;;;;4916123;29;20663;-77
2023/04/24 14:48:57;;;;;;;1.30;0.73;;;14.60;99.90;;;;;;4915735;29;20245;-72
2023/04/24 14:51:25;;;;;;;2.73;0.90;;;14.50;99.90;;;;;;4917733;29;20209;-77
2023/04/24 14:53:53;;;;;;;1.10;0.70;;;14.40;99.90;;;;;;4919585;29;20209;-71
2023/04/24 14:56:20;;;;;;;1.03;0.60;;;14.30;99.90;;;;;;4919412;29;20790;-73
2023/04/24 14:58:47;;;;;;;1.50;0.83;;;14.30;99.90;;;;;;4918840;29;20301;-73
2023/04/24 15:01:14;;;;;;;1.47;0.80;;;14.10;99.90;;;;;;4919363;29;20292;-75
2023/04/24 15:03:41;;;;;;;1.33;0.67;;;13.90;99.90;;;;;;4919297;29;20252;-72
2023/04/24 15:06:07;;;;;;;1.43;0.73;;;13.80;99.90;;;;;;4919013;29;20610;-71
2023/04/24 15:08:34;;;;;;;1.77;1.30;;;13.90;99.90;;;;;;4919155;29;20300;-71
2023/04/24 15:11:03;;;;;;;1.83;0.80;;;13.80;99.90;;;;;;4918839;29;20251;-71
2023/04/24 15:13:30;;;;;;;3.30;1.00;;;14.00;99.90;;;;;;4919110;29;20269;-71
2023/04/24 15:15:56;;;;;;;1.53;0.73;;;14.00;99.90;;;;;;4919129;29;20320;-70
2023/04/24 15:18:23;;;;;;;1.00;0.70;;;14.10;99.90;;;;;;4918972;29;20304;-71
2023/04/24 15:20:50;;;;;;;5.27;0.70;;;14.20;99.90;;;;;;4918901;29;20255;-71
2023/04/24 15:23:17;;;;;;;4.23;2.00;;;14.30;99.90;;;;;;4919118;29;20669;-71
2023/04/24 15:25:44;;;;;;;2.70;0.70;;;14.30;99.90;;;;;;4918616;29;20326;-71
2023/04/24 15:28:13;;;;;;;1.40;0.60;;;14.40;99.90;;;;;;4918923;29;20225;-71
2023/04/24 15:30:41;;;;;;;1.30;0.70;;;14.30;99.90;;;;;;4918057;29;20206;-70
2023/04/24 15:33:07;;;;;;;1.20;0.60;;;14.30;99.90;;;;;;4916031;29;20213;-70
2023/04/24 15:35:34;;;;;;;1.93;0.67;;;14.20;99.90;;;;;;4918394;29;20321;-70
2023/04/24 15:38:03;;;;;;;4.03;0.83;;;14.20;99.90;;;;;;4918686;29;20297;-70
2023/04/24 15:40:30;;;;;;;1.10;0.60;;;14.30;99.90;;;;;;4918232;29;20337;-70
2023/04/24 15:42:57;;;;;;;4.20;0.80;;;14.20;99.90;;;;;;4918944;29;20240;-70
2023/04/24 15:45:26;;;;;;;1.83;0.60;;;14.10;99.90;;;;;;4918670;29;20241;-69
2023/04/24 15:47:53;;;;;;;2.30;0.70;;;14.00;99.90;;;;;;4918730;29;20213;-70
2023/04/24 15:50:21;;;;;;;1.07;0.50;;;14.00;99.90;;;;;;4918367;29;20241;-69
2023/04/24 15:52:48;;;;;;;2.53;0.90;;;13.90;99.90;;;;;;4918577;29;20270;-70
2023/04/24 15:55:15;;;;;;;1.03;0.70;;;13.80;99.90;;;;;;4918723;29;20643;-70
2023/04/24 15:57:43;;;;;;;2.83;0.60;;;13.80;99.90;;;;;;4918797;29;20241;-72
2023/04/24 16:00:11;;;;;;;3.40;0.90;;;13.70;99.90;;;;;;4918687;29;20612;-69
2023/04/24 16:02:39;;;;;;;1.07;0.37;;;13.80;99.90;;;;;;4918264;29;20241;-70
2023/04/24 16:05:07;;;;;;;1.57;0.40;;;13.80;99.90;;;;;;4918162;29;20740;-70
2023/04/24 16:07:34;;;;;;;1.67;0.70;;;13.70;99.90;;;;;;4918452;29;20225;-70
2023/04/24 16:10:01;;;;;;;1.30;0.70;;;13.70;99.90;;;;;;4918556;29;20237;-71
2023/04/24 16:12:28;;;;;;;0.60;0.43;;;13.70;99.90;;;;;;4918261;29;20336;-70
2023/04/24 16:14:55;;;;;;;0.90;0.60;;;13.60;99.90;;;;;;4917915;29;20256;-69
2023/04/24 16:17:23;;;;;;;2.27;0.77;;;13.60;99.90;;;;;;4918059;29;20367;-69
2023/04/24 16:19:51;;;;;;;2.27;0.80;;;13.70;99.90;;;;;;4917485;29;20304;-69
2023/04/24 16:22:18;;;;;;;1.07;0.80;;;13.50;99.90;;;;;;4918084;29;20368;-70
2023/04/24 16:24:46;;;;;;;1.17;0.80;;;13.50;99.90;;;;;;4917759;29;20738;-70
2023/04/24 16:27:14;;;;;;;3.00;0.90;;;13.60;99.90;;;;;;4917850;29;20249;-71
2023/04/24 16:29:41;;;;;;;1.37;0.70;;;13.70;99.90;;;;;;4918048;29;20248;-69
2023/04/24 16:32:09;;;;;;;1.57;0.80;;;13.60;99.90;;;;;;4917890;29;20642;-72
2023/04/24 16:34:36;;;;;;;2.27;0.90;;;13.60;99.90;;;;;;4917574;29;20738;-69
2023/04/24 16:37:05;;;;;;;1.70;1.00;;;13.70;99.90;;;;;;4917498;29;20256;-69
2023/04/24 16:39:32;;;;;;;0.77;0.70;;;13.70;99.90;;;;;;4917694;29;20264;-70
2023/04/24 16:41:58;;;;;;;2.57;0.90;;;13.70;99.90;;;;;;4917713;29;20252;-70
2023/04/24 16:44:25;;;;;;;1.50;1.07;;;13.70;99.90;;;;;;4917364;29;20241;-70
2023/04/24 16:46:52;;;;;;;1.73;0.70;;;13.50;99.90;;;;;;4917054;29;20328;-70
2023/04/24 16:49:19;;;;;;;2.77;1.20;;;13.40;99.90;;;;;;4917879;29;20311;-70
2023/04/24 16:51:46;;;;;;;0.87;0.67;;;13.40;99.90;;;;;;4917476;29;20249;-70
2023/04/24 16:54:14;;;;;;;0.90;0.70;;;13.40;99.90;;;;;;4917244;29;20302;-70
2023/04/24 16:56:41;;;;;;;1.30;0.77;;;13.30;99.90;;;;;;4917153;29;20659;-72
2023/04/24 16:59:08;;;;;;;2.33;0.90;;;13.30;99.90;;;;;;4917311;29;20308;-71
2023/04/24 17:01:35;;;;;;;1.63;0.90;;;13.30;99.90;;;;;;4917168;29;20304;-70
2023/04/24 17:04:02;;;;;;;5.00;1.00;;;13.40;99.90;;;;;;4917148;29;20206;-70
2023/04/24 17:06:30;;;;;;;3.30;1.17;;;13.60;99.90;;;;;;4916765;29;20786;-69
2023/04/24 17:08:59;;;;;;;2.20;1.10;;;13.60;99.90;;;;;;4916948;29;20209;-69
2023/04/24 17:11:27;;;;;;;2.67;1.23;;;13.40;99.90;;;;;;4916986;29;20698;-70
2023/04/24 17:13:54;;;;;;;3.13;1.23;;;13.40;99.90;;;;;;4916334;29;20296;-70
2023/04/24 17:16:21;;;;;;;1.87;1.27;;;13.40;99.90;;;;;;4917113;29;20233;-70
2023/04/24 17:18:49;;;;;;;1.30;0.70;;;13.30;99.90;;;;;;4917346;29;20245;-70
2023/04/24 17:21:16;;;;;;;1.80;1.00;;;13.10;99.90;;;;;;4917043;29;20282;-70
2023/04/24 17:23:42;;;;;;;1.70;0.80;;;13.10;99.90;;;;;;4916896;29;20210;-70
2023/04/24 17:26:10;;;;;;;4.57;1.20;;;13.00;99.90;;;;;;4916654;29;20283;-70
2023/04/24 17:28:38;;;;;;;1.47;0.87;;;13.10;99.90;;;;;;4916887;29;20269;-70
2023/04/24 17:31:05;;;;;;;3.57;1.20;;;13.10;99.90;;;;;;4917086;29;20245;-70
2023/04/24 17:33:32;;;;;;;2.60;1.23;;;12.90;99.90;;;;;;4916785;29;20257;-69
2023/04/24 17:36:00;;;;;;;4.97;1.20;;;13.00;99.90;;;;;;4916622;29;20269;-69
2023/04/24 17:38:28;;;;;;;4.10;1.50;;;12.80;99.90;;;;;;4916879;29;20273;-70
2023/04/24 17:40:55;;;;;;;4.43;2.80;;;12.50;99.90;;;;;;4916721;29;20644;-70
2023/04/24 17:43:23;;;;;;;2.63;1.57;;;12.30;99.90;;;;;;4916697;29;20264;-70
2023/04/24 17:45:54;;;;;;;4.87;2.70;;;12.20;99.90;;;;;;4916698;29;20329;-70
2023/04/24 17:48:21;;;;;;;2.63;1.60;;;12.20;99.90;;;;;;4917064;29;20682;-70
2023/04/24 17:50:49;;;;;;;3.37;1.43;;;12.20;99.90;;;;;;4916383;29;20216;-72
2023/04/24 17:53:17;;;;;;;5.37;0.90;;;12.10;99.90;;;;;;4916772;29;20244;-69
2023/04/24 17:55:45;;;;;;;2.93;1.50;;;12.30;99.90;;;;;;4916645;29;20252;-71
2023/04/24 17:58:12;;;;;;;2.57;1.17;;;12.20;99.90;;;;;;4916456;29;20579;-71
2023/04/24 18:00:39;;;;;;;2.33;1.20;;;12.30;99.90;;;;;;4916594;29;20206;-71
2023/04/24 18:03:08;;;;;;;4.53;1.03;;;12.20;99.90;;;;;;4916448;29;20292;-70
2023/04/24 18:05:37;;;;;;;1.87;1.00;;;12.10;99.90;;;;;;4916126;29;20713;-70
2023/04/24 18:08:04;;;;;;;2.53;0.90;;;12.10;99.90;;;;;;4916392;29;20267;-70
2023/04/24 18:10:34;;;;;;;3.57;1.17;;;12.30;99.90;;;;;;4916496;29;20658;-70
2023/04/24 18:13:01;;;;;;;2.07;1.10;;;12.30;99.90;;;;;;4916571;29;20219;-70
2023/04/24 18:15:28;;;;;;;3.77;0.90;;;12.10;99.90;;;;;;4916396;29;20320;-71
2023/04/24 18:17:55;;;;;;;2.30;0.90;;;12.00;99.90;;;;;;4916498;29;20276;-70
2023/04/24 18:20:23;;;;;;;1.77;1.10;;;12.10;99.90;;;;;;4916291;29;20304;-70
2023/04/24 18:22:50;;;;;;;3.10;0.90;;;12.20;99.90;;;;;;4916202;29;20256;-71
2023/04/24 18:25:22;;;;;;;2.30;1.00;;;12.10;99.90;;;;;;4917912;29;20349;-70
2023/04/24 18:27:49;;;;;;;1.63;0.80;;;12.10;99.90;;;;;;4920311;29;20296;-69
2023/04/24 18:30:15;;;;;;;0.80;0.67;;;12.10;99.90;;;;;;4920033;29;20245;-70
2023/04/24 18:32:42;;;;;;;1.50;0.87;;;12.20;99.90;;;;;;4919792;29;20650;-71
2023/04/24 18:35:10;;;;;;;1.43;0.90;;;12.10;99.90;;;;;;4919750;29;20263;-70
2023/04/24 18:37:39;;;;;;;3.17;1.10;;;12.00;99.90;;;;;;4919966;29;20268;-70
2023/04/24 18:40:07;;;;;;;1.83;0.90;;;12.10;99.90;;;;;;4919863;29;20686;-70
2023/04/24 18:42:34;;;;;;;2.30;0.80;;;12.10;99.90;;;;;;4919785;29;20277;-70
2023/04/24 18:45:03;;;;;;;2.97;0.93;;;12.10;99.90;;;;;;4919764;29;20304;-70
2023/04/24 18:47:30;;;;;;;2.37;1.07;;;12.00;99.90;;;;;;4919648;29;20252;-71
2023/04/24 18:49:57;;;;;;;5.23;1.10;;;11.80;99.90;;;;;;4919521;29;20244;-71
2023/04/24 18:52:24;;;;;;;2.60;1.27;;;11.60;99.90;;;;;;4920055;29;20245;-70
2023/04/24 18:54:53;;;;;;;5.37;1.30;;;11.60;99.90;;;;;;4919829;29;20223;-70
2023/04/24 18:57:20;;;;;;;3.40;1.23;;;11.60;99.90;;;;;;4919604;29;20236;-71
2023/04/24 18:59:46;;;;;;;1.80;1.00;;;11.60;99.90;;;;;;4919632;29;20292;-70
2023/04/24 19:02:13;;;;;;;2.33;1.23;;;11.50;99.90;;;;;;4919298;29;20293;-70
2023/04/24 19:04:40;;;;;;;4.70;1.03;;;11.30;99.90;;;;;;4919371;29;20241;-70
2023/04/24 19:07:07;;;;;;;3.13;1.30;;;11.20;99.90;;;;;;4919380;29;20773;-70
2023/04/24 19:09:34;;;;;;;4.97;1.30;;;11.30;99.90;;;;;;4919273;29;20758;-70
2023/04/24 19:12:03;;;;;;;3.47;1.20;;;11.30;99.90;;;;;;4919205;29;20719;-70
2023/04/24 19:14:30;;;;;;;2.63;1.53;;;11.30;99.90;;;;;;4919514;29;20570;-70
2023/04/24 19:16:57;;;;;;;2.00;1.20;;;11.30;99.90;;;;;;4919678;29;20321;-74
2023/04/24 19:19:24;;;;;;;4.73;1.20;;;11.20;99.90;;;;;;4919365;29;20305;-71
2023/04/24 19:21:51;;;;;;;2.63;1.43;;;11.20;99.90;;;;;;4919160;29;20571;-70
2023/04/24 19:24:20;;;;;;;5.30;1.90;;;11.10;99.90;;;;;;4918959;29;20304;-70
2023/04/24 19:26:46;;;;;;;6.53;1.50;;;10.90;99.90;;;;;;4918653;29;20277;-70
2023/04/24 19:29:15;;;;;;;4.80;1.80;;;10.80;99.90;;;;;;4918716;29;20300;-70
2023/04/24 19:31:42;;;;;;;7.57;2.70;;;10.80;99.90;;;;;;4919169;29;20644;-70
2023/04/24 19:34:08;;;;;;;4.00;1.30;;;10.80;99.90;;;;;;4919232;29;20244;-73
2023/04/24 19:36:36;;;;;;;1.67;1.23;;;10.80;99.90;;;;;;4918183;29;20312;-70
2023/04/24 19:39:03;;;;;;;9.43;1.60;;;10.70;99.90;;;;;;4918832;29;20256;-70
2023/04/24 19:41:29;;;;;;;4.40;1.70;;;10.80;99.90;;;;;;4918647;29;20214;-70
2023/04/24 19:43:56;;;;;;;3.73;1.80;;;10.80;99.90;;;;;;4918580;29;20292;-70
2023/04/24 19:46:25;;;;;;;2.87;1.83;;;10.80;99.90;;;;;;4918469;29;20273;-70
2023/04/24 19:48:52;;;;;;;4.80;1.80;;;11.00;99.90;;;;;;4918562;29;20245;-70
2023/04/24 19:51:19;;;;;;;6.70;1.60;;;11.10;99.90;;;;;;4918633;29;20269;-70
2023/04/24 19:53:45;;;;;;;4.77;1.67;;;11.20;99.90;;;;;;4918832;29;20301;-70
2023/04/24 19:56:12;;;;;;;4.77;1.53;;;11.10;99.90;;;;;;4918285;29;20267;-71
2023/04/24 19:58:39;;;;;;;2.50;1.47;;;11.00;99.90;;;;;;4918401;29;20256;-70
2023/04/24 20:01:06;;;;;;;3.27;1.50;;;11.10;99.90;;;;;;4918511;29;20266;-71
2023/04/24 20:03:34;;;;;;;2.73;1.50;;;10.90;99.90;;;;;;4918169;29;20297;-71
2023/04/24 20:06:01;;;;;;;3.93;1.40;;;11.00;99.90;;;;;;4918166;29;20317;-70
2023/04/24 20:08:29;;;;;;;3.07;1.50;;;10.90;99.90;;;;;;4918081;29;20245;-71
2023/04/24 20:10:56;;;;;;;6.37;1.50;;;11.00;99.90;;;;;;4918235;29;20245;-70